sensor_id;sensor_type;location;lat;lon;timestamp;temperature;humidity
18041;DHT22;9145;48.588;9.250;2022-10-16T00:02:05;17.00;99.90
18041;DHT22;9145;48.588;9.250;2022-10-16T00:04:32;17.10;99.90
18041;DHT22;9145;48.588;9.250;2022-10-16T00:06:59;17.00;99.90
18041;DHT22;9145;48.588;9.250;2022-10-16T00:09:26;17.00;99.90
18041;DHT22;9145;48.588;9.250;2022-10-16T00:11:52;17.00;99.90
18041;DHT22;9145;48.588;9.250;2022-10-16T00:14:19;17.00;99.90
18041;DHT22;9145;48.588;9.250;2022-10-16T00:16:47;17.00;99.90
18041;DHT22;9145;48.588;9.250;2022-10-16T00:19:14;17.00;99.90
18041;DHT22;9145;48.588;9.250;2022-10-16T00:21:41;17.00;99.90
18041;DHT22;9145;48.588;9.250;2022-10-16T00:24:09;17.00;99.90
18041;DHT22;9145;48.588;9.250;2022-10-16T00:26:37;17.00;99.90
18041;DHT22;9145;48.588;9.250;2022-10-16T00:29:05;16.90;99.90
18041;DHT22;9145;48.588;9.250;2022-10-16T00:31:32;16.70;99.90
18041;DHT22;9145;48.588;9.250;2022-10-16T00:34:00;16.60;99.90
18041;DHT22;9145;48.588;9.250;2022-10-16T00:36:27;16.50;99.90
18041;DHT22;9145;48.588;9.250;2022-10-16T00:38:56;16.40;99.90
18041;DHT22;9145;48.588;9.250;2022-10-16T00:41:26;16.40;99.90
18041;DHT22;9145;48.588;9.250;2022-10-16T00:43:54;16.40;99.90
18041;DHT22;9145;48.588;9.250;2022-10-16T00:46:23;16.40;99.90
18041;DHT22;9145;48.588;9.250;2022-10-16T00:48:52;16.50;99.90
18041;DHT22;9145;48.588;9.250;2022-10-16T00:51:25;16.50;99.90
18041;DHT22;9145;48.588;9.250;2022-10-16T00:53:54;16.50;99.90
18041;DHT22;9145;48.588;9.250;2022-10-16T00:56:21;16.40;99.90
18041;DHT22;9145;48.588;9.250;2022-10-16T00:58:48;16.40;99.90
18041;DHT22;9145;48.588;9.250;2022-10-16T01:01:15;16.40;99.90
18041;DHT22;9145;48.588;9.250;2022-10-16T01:03:42;16.50;99.90
18041;DHT22;9145;48.588;9.250;2022-10-16T01:06:23;16.50;99.90
18041;DHT22;9145;48.588;9.250;2022-10-16T01:09:04;16.50;99.90
18041;DHT22;9145;48.588;9.250;2022-10-16T01:11:35;16.40;99.90
18041;DHT22;9145;48.588;9.250;2022-10-16T01:14:10;16.40;99.90
18041;DHT22;9145;48.588;9.250;2022-10-16T01:16:44;16.30;99.90
18041;DHT22;9145;48.588;9.250;2022-10-16T01:19:16;16.20;99.90
18041;DHT22;9145;48.588;9.250;2022-10-16T01:21:47;16.20;99.90
18041;DHT22;9145;48.588;9.250;2022-10-16T01:24:21;16.10;99.90
18041;DHT22;9145;48.588;9.250;2022-10-16T01:27:09;16.10;99.90
18041;DHT22;9145;48.588;9.250;2022-10-16T01:29:41;16.10;99.90
18041;DHT22;9145;48.588;9.250;2022-10-16T01:32:14;16.00;99.90
18041;DHT22;9145;48.588;9.250;2022-10-16T01:34:48;16.00;99.90
18041;DHT22;9145;48.588;9.250;2022-10-16T01:37:21;16.00;99.90
18041;DHT22;9145;48.588;9.250;2022-10-16T01:39:50;16.00;99.90
18041;DHT22;9145;48.588;9.250;2022-10-16T01:42:23;16.10;99.90
18041;DHT22;9145;48.588;9.250;2022-10-16T01:44:51;16.10;99.90
18041;DHT22;9145;48.588;9.250;2022-10-16T01:47:22;16.10;99.90
18041;DHT22;9145;48.588;9.250;2022-10-16T01:49:52;16.00;99.90
18041;DHT22;9145;48.588;9.250;2022-10-16T01:52:21;16.00;99.90
18041;DHT22;9145;48.588;9.250;2022-10-16T01:54:53;16.00;99.90
18041;DHT22;9145;48.588;9.250;2022-10-16T01:57:24;15.90;99.90
18041;DHT22;9145;48.588;9.250;2022-10-16T01:59:54;15.90;99.90
18041;DHT22;9145;48.588;9.250;2022-10-16T02:02:22;15.90;99.90
18041;DHT22;9145;48.588;9.250;2022-10-16T02:04:56;15.80;99.90
18041;DHT22;9145;48.588;9.250;2022-10-16T02:07:24;15.80;99.90
18041;DHT22;9145;48.588;9.250;2022-10-16T02:09:51;15.70;99.90
18041;DHT22;9145;48.588;9.250;2022-10-16T02:12:25;15.70;99.90
18041;DHT22;9145;48.588;9.250;2022-10-16T02:14:52;15.70;99.90
18041;DHT22;9145;48.588;9.250;2022-10-16T02:17:20;15.70;99.90
18041;DHT22;9145;48.588;9.250;2022-10-16T02:19:48;15.70;99.90
18041;DHT22;9145;48.588;9.250;2022-10-16T02:22:19;15.60;99.90
18041;DHT22;9145;48.588;9.250;2022-10-16T02:24:53;15.50;99.90
18041;DHT22;9145;48.588;9.250;2022-10-16T02:27:26;15.50;99.90
18041;DHT22;9145;48.588;9.250;2022-10-16T02:29:57;15.50;99.90
18041;DHT22;9145;48.588;9.250;2022-10-16T02:32:30;15.50;99.90
18041;DHT22;9145;48.588;9.250;2022-10-16T02:34:58;15.50;99.90
18041;DHT22;9145;48.588;9.250;2022-10-16T02:37:27;15.50;99.90
18041;DHT22;9145;48.588;9.250;2022-10-16T02:39:55;15.40;99.90
18041;DHT22;9145;48.588;9.250;2022-10-16T02:42:29;15.50;99.90
18041;DHT22;9145;48.588;9.250;2022-10-16T02:44:56;15.50;99.90
18041;DHT22;9145;48.588;9.250;2022-10-16T02:47:23;15.50;99.90
18041;DHT22;9145;48.588;9.250;2022-10-16T02:49:49;15.40;99.90
18041;DHT22;9145;48.588;9.250;2022-10-16T02:52:16;15.40;99.90
18041;DHT22;9145;48.588;9.250;2022-10-16T02:54:43;15.40;99.90
18041;DHT22;9145;48.588;9.250;2022-10-16T02:57:10;15.40;99.90
18041;DHT22;9145;48.588;9.250;2022-10-16T02:59:38;15.50;99.90
18041;DHT22;9145;48.588;9.250;2022-10-16T03:02:05;15.50;99.90
18041;DHT22;9145;48.588;9.250;2022-10-16T03:04:32;15.50;99.90
18041;DHT22;9145;48.588;9.250;2022-10-16T03:06:58;15.40;99.90
18041;DHT22;9145;48.588;9.250;2022-10-16T03:09:25;15.40;99.90
18041;DHT22;9145;48.588;9.250;2022-10-16T03:11:52;15.40;99.90
18041;DHT22;9145;48.588;9.250;2022-10-16T03:14:19;15.40;99.90
18041;DHT22;9145;48.588;9.250;2022-10-16T03:16:47;15.30;99.90
18041;DHT22;9145;48.588;9.250;2022-10-16T03:19:15;15.30;99.90
18041;DHT22;9145;48.588;9.250;2022-10-16T03:21:42;15.30;99.90
18041;DHT22;9145;48.588;9.250;2022-10-16T03:24:09;15.30;99.90
18041;DHT22;9145;48.588;9.250;2022-10-16T03:26:36;15.30;99.90
18041;DHT22;9145;48.588;9.250;2022-10-16T03:29:03;15.40;99.90
18041;DHT22;9145;48.588;9.250;2022-10-16T03:31:30;15.30;99.90
18041;DHT22;9145;48.588;9.250;2022-10-16T03:33:59;15.30;99.90
18041;DHT22;9145;48.588;9.250;2022-10-16T03:36:25;15.30;99.90
18041;DHT22;9145;48.588;9.250;2022-10-16T03:38:52;15.20;99.90
18041;DHT22;9145;48.588;9.250;2022-10-16T03:41:19;15.20;99.90
18041;DHT22;9145;48.588;9.250;2022-10-16T03:43:46;15.20;99.90
18041;DHT22;9145;48.588;9.250;2022-10-16T03:46:13;15.40;99.90
18041;DHT22;9145;48.588;9.250;2022-10-16T03:48:40;15.40;99.90
18041;DHT22;9145;48.588;9.250;2022-10-16T03:51:08;15.40;99.90
18041;DHT22;9145;48.588;9.250;2022-10-16T03:53:35;15.50;99.90
18041;DHT22;9145;48.588;9.250;2022-10-16T03:56:02;15.60;99.90
18041;DHT22;9145;48.588;9.250;2022-10-16T03:58:28;15.70;99.90
18041;DHT22;9145;48.588;9.250;2022-10-16T04:00:55;15.70;99.90
18041;DHT22;9145;48.588;9.250;2022-10-16T04:03:22;15.80;99.90
18041;DHT22;9145;48.588;9.250;2022-10-16T04:05:49;15.80;99.90
18041;DHT22;9145;48.588;9.250;2022-10-16T04:08:17;15.80;99.90
18041;DHT22;9145;48.588;9.250;2022-10-16T04:10:44;15.80;99.90
18041;DHT22;9145;48.588;9.250;2022-10-16T04:13:12;15.80;99.90
18041;DHT22;9145;48.588;9.250;2022-10-16T04:15:39;15.70;99.90
18041;DHT22;9145;48.588;9.250;2022-10-16T04:18:06;15.60;99.90
18041;DHT22;9145;48.588;9.250;2022-10-16T04:20:33;15.50;99.90
18041;DHT22;9145;48.588;9.250;2022-10-16T04:23:00;15.50;99.90
18041;DHT22;9145;48.588;9.250;2022-10-16T04:25:28;15.60;99.90
18041;DHT22;9145;48.588;9.250;2022-10-16T04:27:55;15.50;99.90
18041;DHT22;9145;48.588;9.250;2022-10-16T04:30:22;15.50;99.90
18041;DHT22;9145;48.588;9.250;2022-10-16T04:32:49;15.40;99.90
18041;DHT22;9145;48.588;9.250;2022-10-16T04:35:16;15.40;99.90
18041;DHT22;9145;48.588;9.250;2022-10-16T04:37:43;15.30;99.90
18041;DHT22;9145;48.588;9.250;2022-10-16T04:40:10;15.20;99.90
18041;DHT22;9145;48.588;9.250;2022-10-16T04:42:38;15.10;99.90
18041;DHT22;9145;48.588;9.250;2022-10-16T04:45:06;15.10;99.90
18041;DHT22;9145;48.588;9.250;2022-10-16T04:47:34;15.10;99.90
18041;DHT22;9145;48.588;9.250;2022-10-16T04:50:00;15.10;99.90
18041;DHT22;9145;48.588;9.250;2022-10-16T04:52:28;15.10;99.90
18041;DHT22;9145;48.588;9.250;2022-10-16T04:54:56;15.20;99.90
18041;DHT22;9145;48.588;9.250;2022-10-16T04:57:26;15.20;99.90
18041;DHT22;9145;48.588;9.250;2022-10-16T04:59:55;15.20;99.90
18041;DHT22;9145;48.588;9.250;2022-10-16T05:02:21;15.20;99.90
18041;DHT22;9145;48.588;9.250;2022-10-16T05:04:48;15.20;99.90
18041;DHT22;9145;48.588;9.250;2022-10-16T05:07:15;15.20;99.90
18041;DHT22;9145;48.588;9.250;2022-10-16T05:09:42;15.10;99.90
18041;DHT22;9145;48.588;9.250;2022-10-16T05:12:09;15.20;99.90
18041;DHT22;9145;48.588;9.250;2022-10-16T05:14:35;15.20;99.90
18041;DHT22;9145;48.588;9.250;2022-10-16T05:17:04;15.20;99.90
18041;DHT22;9145;48.588;9.250;2022-10-16T05:19:30;15.30;99.90
18041;DHT22;9145;48.588;9.250;2022-10-16T05:21:57;15.40;99.90
18041;DHT22;9145;48.588;9.250;2022-10-16T05:24:24;15.40;99.90
18041;DHT22;9145;48.588;9.250;2022-10-16T05:26:51;15.40;99.90
18041;DHT22;9145;48.588;9.250;2022-10-16T05:29:18;15.40;99.90
18041;DHT22;9145;48.588;9.250;2022-10-16T05:31:45;15.40;99.90
18041;DHT22;9145;48.588;9.250;2022-10-16T05:34:13;15.30;99.90
18041;DHT22;9145;48.588;9.250;2022-10-16T05:36:40;15.30;99.90
18041;DHT22;9145;48.588;9.250;2022-10-16T05:39:07;15.20;99.90
18041;DHT22;9145;48.588;9.250;2022-10-16T05:41:33;15.20;99.90
18041;DHT22;9145;48.588;9.250;2022-10-16T05:44:03;15.10;99.90
18041;DHT22;9145;48.588;9.250;2022-10-16T05:46:30;15.10;99.90
18041;DHT22;9145;48.588;9.250;2022-10-16T05:48:57;15.10;99.90
18041;DHT22;9145;48.588;9.250;2022-10-16T05:51:25;15.00;99.90
18041;DHT22;9145;48.588;9.250;2022-10-16T05:53:52;14.90;99.90
18041;DHT22;9145;48.588;9.250;2022-10-16T05:56:19;14.80;99.90
18041;DHT22;9145;48.588;9.250;2022-10-16T05:58:46;14.70;99.90
18041;DHT22;9145;48.588;9.250;2022-10-16T06:01:15;14.70;99.90
18041;DHT22;9145;48.588;9.250;2022-10-16T06:03:42;14.80;99.90
18041;DHT22;9145;48.588;9.250;2022-10-16T06:06:10;14.80;99.90
18041;DHT22;9145;48.588;9.250;2022-10-16T06:08:38;14.80;99.90
18041;DHT22;9145;48.588;9.250;2022-10-16T06:11:07;14.70;99.90
18041;DHT22;9145;48.588;9.250;2022-10-16T06:13:34;14.70;99.90
18041;DHT22;9145;48.588;9.250;2022-10-16T06:16:02;14.90;99.90
18041;DHT22;9145;48.588;9.250;2022-10-16T06:18:29;14.80;99.90
18041;DHT22;9145;48.588;9.250;2022-10-16T06:20:56;14.80;99.90
18041;DHT22;9145;48.588;9.250;2022-10-16T06:23:24;14.70;99.90
18041;DHT22;9145;48.588;9.250;2022-10-16T06:25:52;14.70;99.90
18041;DHT22;9145;48.588;9.250;2022-10-16T06:28:19;14.80;99.90
18041;DHT22;9145;48.588;9.250;2022-10-16T06:30:46;14.90;99.90
18041;DHT22;9145;48.588;9.250;2022-10-16T06:33:13;14.90;99.90
18041;DHT22;9145;48.588;9.250;2022-10-16T06:35:40;15.10;99.90
18041;DHT22;9145;48.588;9.250;2022-10-16T06:38:07;15.20;99.90
18041;DHT22;9145;48.588;9.250;2022-10-16T06:40:34;15.30;99.90
18041;DHT22;9145;48.588;9.250;2022-10-16T06:43:02;15.30;99.90
18041;DHT22;9145;48.588;9.250;2022-10-16T06:45:29;15.30;99.90
18041;DHT22;9145;48.588;9.250;2022-10-16T06:47:55;15.40;99.90
18041;DHT22;9145;48.588;9.250;2022-10-16T06:50:22;15.40;99.90
18041;DHT22;9145;48.588;9.250;2022-10-16T06:52:49;15.20;99.90
18041;DHT22;9145;48.588;9.250;2022-10-16T06:55:16;15.30;99.90
18041;DHT22;9145;48.588;9.250;2022-10-16T06:57:43;15.30;99.90
18041;DHT22;9145;48.588;9.250;2022-10-16T07:00:12;15.40;99.90
18041;DHT22;9145;48.588;9.250;2022-10-16T07:02:39;15.60;99.90
18041;DHT22;9145;48.588;9.250;2022-10-16T07:05:06;15.70;99.90
18041;DHT22;9145;48.588;9.250;2022-10-16T07:07:33;15.70;99.90
18041;DHT22;9145;48.588;9.250;2022-10-16T07:10:00;15.70;99.90
18041;DHT22;9145;48.588;9.250;2022-10-16T07:12:26;15.60;99.90
18041;DHT22;9145;48.588;9.250;2022-10-16T07:14:53;15.50;99.90
18041;DHT22;9145;48.588;9.250;2022-10-16T07:17:22;15.50;99.90
18041;DHT22;9145;48.588;9.250;2022-10-16T07:19:49;15.50;99.90
18041;DHT22;9145;48.588;9.250;2022-10-16T07:22:18;15.50;99.90
18041;DHT22;9145;48.588;9.250;2022-10-16T07:24:45;15.60;99.90
18041;DHT22;9145;48.588;9.250;2022-10-16T07:27:12;15.70;99.90
18041;DHT22;9145;48.588;9.250;2022-10-16T07:29:39;15.70;99.90
18041;DHT22;9145;48.588;9.250;2022-10-16T07:32:06;15.70;99.90
18041;DHT22;9145;48.588;9.250;2022-10-16T07:34:34;15.70;99.90
18041;DHT22;9145;48.588;9.250;2022-10-16T07:37:00;15.70;99.90
18041;DHT22;9145;48.588;9.250;2022-10-16T07:39:27;15.70;99.90
18041;DHT22;9145;48.588;9.250;2022-10-16T07:42:03;15.70;99.90
18041;DHT22;9145;48.588;9.250;2022-10-16T07:44:30;15.80;99.90
18041;DHT22;9145;48.588;9.250;2022-10-16T07:46:57;15.80;99.90
18041;DHT22;9145;48.588;9.250;2022-10-16T07:49:24;15.90;99.90
18041;DHT22;9145;48.588;9.250;2022-10-16T07:51:52;15.90;99.90
18041;DHT22;9145;48.588;9.250;2022-10-16T07:54:19;15.90;99.90
18041;DHT22;9145;48.588;9.250;2022-10-16T07:56:46;16.00;99.90
18041;DHT22;9145;48.588;9.250;2022-10-16T07:59:13;16.10;99.90
18041;DHT22;9145;48.588;9.250;2022-10-16T08:01:40;16.30;99.90
18041;DHT22;9145;48.588;9.250;2022-10-16T08:04:08;16.40;99.90
18041;DHT22;9145;48.588;9.250;2022-10-16T08:06:37;16.50;99.90
18041;DHT22;9145;48.588;9.250;2022-10-16T08:09:06;16.50;99.90
18041;DHT22;9145;48.588;9.250;2022-10-16T08:11:33;16.50;99.90
18041;DHT22;9145;48.588;9.250;2022-10-16T08:14:00;16.60;99.90
18041;DHT22;9145;48.588;9.250;2022-10-16T08:16:27;16.60;99.90
18041;DHT22;9145;48.588;9.250;2022-10-16T08:18:53;16.70;99.90
18041;DHT22;9145;48.588;9.250;2022-10-16T08:21:22;16.80;99.90
18041;DHT22;9145;48.588;9.250;2022-10-16T08:23:49;16.90;99.90
18041;DHT22;9145;48.588;9.250;2022-10-16T08:26:18;17.00;99.90
18041;DHT22;9145;48.588;9.250;2022-10-16T08:28:46;17.00;99.90
18041;DHT22;9145;48.588;9.250;2022-10-16T08:31:15;17.10;99.90
18041;DHT22;9145;48.588;9.250;2022-10-16T08:33:45;17.20;99.90
18041;DHT22;9145;48.588;9.250;2022-10-16T08:36:14;17.30;99.90
18041;DHT22;9145;48.588;9.250;2022-10-16T08:38:41;17.40;99.90
18041;DHT22;9145;48.588;9.250;2022-10-16T08:41:45;17.50;99.90
18041;DHT22;9145;48.588;9.250;2022-10-16T08:47:22;17.80;99.90
18041;DHT22;9145;48.588;9.250;2022-10-16T08:49:56;17.80;99.90
18041;DHT22;9145;48.588;9.250;2022-10-16T08:52:27;17.70;99.90
18041;DHT22;9145;48.588;9.250;2022-10-16T08:54:55;17.80;99.90
18041;DHT22;9145;48.588;9.250;2022-10-16T08:57:25;17.80;99.90
18041;DHT22;9145;48.588;9.250;2022-10-16T08:59:53;17.80;99.90
18041;DHT22;9145;48.588;9.250;2022-10-16T09:02:31;17.80;99.90
18041;DHT22;9145;48.588;9.250;2022-10-16T09:05:08;17.80;99.90
18041;DHT22;9145;48.588;9.250;2022-10-16T09:07:43;17.80;99.90
18041;DHT22;9145;48.588;9.250;2022-10-16T09:10:23;17.80;99.90
18041;DHT22;9145;48.588;9.250;2022-10-16T09:12:58;17.90;99.90
18041;DHT22;9145;48.588;9.250;2022-10-16T09:15:33;17.90;99.90
18041;DHT22;9145;48.588;9.250;2022-10-16T09:18:06;18.00;99.90
18041;DHT22;9145;48.588;9.250;2022-10-16T09:20:45;18.00;99.90
18041;DHT22;9145;48.588;9.250;2022-10-16T09:23:17;18.10;99.90
18041;DHT22;9145;48.588;9.250;2022-10-16T09:25:46;18.10;99.90
18041;DHT22;9145;48.588;9.250;2022-10-16T09:28:16;18.20;99.90
18041;DHT22;9145;48.588;9.250;2022-10-16T09:30:43;18.20;99.90
18041;DHT22;9145;48.588;9.250;2022-10-16T09:33:12;18.30;99.90
18041;DHT22;9145;48.588;9.250;2022-10-16T09:35:41;18.50;99.90
18041;DHT22;9145;48.588;9.250;2022-10-16T09:38:09;18.70;99.90
18041;DHT22;9145;48.588;9.250;2022-10-16T09:40:47;18.90;99.90
18041;DHT22;9145;48.588;9.250;2022-10-16T09:43:22;19.20;99.90
18041;DHT22;9145;48.588;9.250;2022-10-16T09:45:57;19.30;99.90
18041;DHT22;9145;48.588;9.250;2022-10-16T09:48:27;19.20;99.90
18041;DHT22;9145;48.588;9.250;2022-10-16T09:50:59;19.20;99.90
18041;DHT22;9145;48.588;9.250;2022-10-16T09:53:41;19.10;99.90
18041;DHT22;9145;48.588;9.250;2022-10-16T09:56:10;19.10;99.90
18041;DHT22;9145;48.588;9.250;2022-10-16T09:58:43;19.20;99.90
18041;DHT22;9145;48.588;9.250;2022-10-16T10:01:13;19.20;99.90
18041;DHT22;9145;48.588;9.250;2022-10-16T10:03:43;19.20;99.90
18041;DHT22;9145;48.588;9.250;2022-10-16T10:06:21;19.20;99.90
18041;DHT22;9145;48.588;9.250;2022-10-16T10:08:56;19.20;99.90
18041;DHT22;9145;48.588;9.250;2022-10-16T10:11:51;19.30;99.90
18041;DHT22;9145;48.588;9.250;2022-10-16T10:14:26;19.50;99.90
18041;DHT22;9145;48.588;9.250;2022-10-16T10:19:48;19.80;99.90
18041;DHT22;9145;48.588;9.250;2022-10-16T10:22:27;20.10;99.90
18041;DHT22;9145;48.588;9.250;2022-10-16T10:25:15;20.30;99.90
18041;DHT22;9145;48.588;9.250;2022-10-16T10:27:51;20.40;99.90
18041;DHT22;9145;48.588;9.250;2022-10-16T10:30:25;20.50;99.90
18041;DHT22;9145;48.588;9.250;2022-10-16T10:33:08;20.70;99.90
18041;DHT22;9145;48.588;9.250;2022-10-16T10:35:44;20.70;99.90
18041;DHT22;9145;48.588;9.250;2022-10-16T10:38:24;20.80;99.90
18041;DHT22;9145;48.588;9.250;2022-10-16T10:41:00;20.80;99.90
18041;DHT22;9145;48.588;9.250;2022-10-16T10:43:45;20.90;99.90
18041;DHT22;9145;48.588;9.250;2022-10-16T10:46:24;21.00;99.90
18041;DHT22;9145;48.588;9.250;2022-10-16T10:49:13;21.30;99.90
18041;DHT22;9145;48.588;9.250;2022-10-16T10:51:52;21.40;99.90
18041;DHT22;9145;48.588;9.250;2022-10-16T10:54:28;21.60;99.90
18041;DHT22;9145;48.588;9.250;2022-10-16T10:57:02;21.70;99.90
18041;DHT22;9145;48.588;9.250;2022-10-16T10:59:53;21.90;99.90
18041;DHT22;9145;48.588;9.250;2022-10-16T11:02:26;22.20;99.90
18041;DHT22;9145;48.588;9.250;2022-10-16T11:07:57;22.40;99.90
18041;DHT22;9145;48.588;9.250;2022-10-16T11:10:28;22.50;99.90
18041;DHT22;9145;48.588;9.250;2022-10-16T11:13:00;22.50;99.90
18041;DHT22;9145;48.588;9.250;2022-10-16T11:15:36;22.50;99.90
18041;DHT22;9145;48.588;9.250;2022-10-16T11:18:08;22.40;99.90
18041;DHT22;9145;48.588;9.250;2022-10-16T11:20:42;22.50;99.90
18041;DHT22;9145;48.588;9.250;2022-10-16T11:23:14;22.60;99.90
18041;DHT22;9145;48.588;9.250;2022-10-16T11:25:43;22.80;99.90
18041;DHT22;9145;48.588;9.250;2022-10-16T11:28:14;23.10;99.90
18041;DHT22;9145;48.588;9.250;2022-10-16T11:30:46;23.20;99.90
18041;DHT22;9145;48.588;9.250;2022-10-16T11:33:25;23.30;99.90
18041;DHT22;9145;48.588;9.250;2022-10-16T11:35:57;23.40;99.90
18041;DHT22;9145;48.588;9.250;2022-10-16T11:38:30;23.50;99.90
18041;DHT22;9145;48.588;9.250;2022-10-16T11:41:02;23.50;99.90
18041;DHT22;9145;48.588;9.250;2022-10-16T11:43:35;23.60;99.90
18041;DHT22;9145;48.588;9.250;2022-10-16T11:46:09;23.80;99.90
18041;DHT22;9145;48.588;9.250;2022-10-16T11:48:42;24.00;99.90
18041;DHT22;9145;48.588;9.250;2022-10-16T11:51:17;24.00;99.90
18041;DHT22;9145;48.588;9.250;2022-10-16T11:53:51;24.00;99.90
18041;DHT22;9145;48.588;9.250;2022-10-16T11:56:20;23.90;99.90
18041;DHT22;9145;48.588;9.250;2022-10-16T11:58:55;23.90;99.90
18041;DHT22;9145;48.588;9.250;2022-10-16T12:01:27;23.80;99.90
18041;DHT22;9145;48.588;9.250;2022-10-16T12:04:16;23.90;99.90
18041;DHT22;9145;48.588;9.250;2022-10-16T12:06:48;24.00;99.90
18041;DHT22;9145;48.588;9.250;2022-10-16T12:09:22;23.90;99.90
18041;DHT22;9145;48.588;9.250;2022-10-16T12:11:49;23.90;99.90
18041;DHT22;9145;48.588;9.250;2022-10-16T12:14:22;24.20;99.90
18041;DHT22;9145;48.588;9.250;2022-10-16T12:17:00;24.20;99.90
18041;DHT22;9145;48.588;9.250;2022-10-16T12:19:29;24.20;99.90
18041;DHT22;9145;48.588;9.250;2022-10-16T12:21:59;24.30;99.90
18041;DHT22;9145;48.588;9.250;2022-10-16T12:24:34;24.20;99.90
18041;DHT22;9145;48.588;9.250;2022-10-16T12:27:03;24.30;99.90
18041;DHT22;9145;48.588;9.250;2022-10-16T12:29:36;24.20;99.90
18041;DHT22;9145;48.588;9.250;2022-10-16T12:32:05;24.20;99.90
18041;DHT22;9145;48.588;9.250;2022-10-16T12:34:39;24.40;99.90
18041;DHT22;9145;48.588;9.250;2022-10-16T12:37:13;24.70;99.90
18041;DHT22;9145;48.588;9.250;2022-10-16T12:39:41;24.70;99.90
18041;DHT22;9145;48.588;9.250;2022-10-16T12:42:22;24.80;99.90
18041;DHT22;9145;48.588;9.250;2022-10-16T12:44:49;24.90;99.90
18041;DHT22;9145;48.588;9.250;2022-10-16T12:47:21;24.90;99.90
18041;DHT22;9145;48.588;9.250;2022-10-16T12:49:51;24.70;99.90
18041;DHT22;9145;48.588;9.250;2022-10-16T12:52:35;24.70;99.90
18041;DHT22;9145;48.588;9.250;2022-10-16T12:55:03;24.80;99.90
18041;DHT22;9145;48.588;9.250;2022-10-16T12:57:44;25.00;99.90
18041;DHT22;9145;48.588;9.250;2022-10-16T13:00:23;25.20;99.90
18041;DHT22;9145;48.588;9.250;2022-10-16T13:06:01;25.50;99.90
18041;DHT22;9145;48.588;9.250;2022-10-16T13:08:45;25.60;99.90
18041;DHT22;9145;48.588;9.250;2022-10-16T13:11:22;25.70;99.90
18041;DHT22;9145;48.588;9.250;2022-10-16T13:16:57;26.00;99.90
18041;DHT22;9145;48.588;9.250;2022-10-16T13:19:32;25.90;99.90
18041;DHT22;9145;48.588;9.250;2022-10-16T13:22:05;25.90;99.90
18041;DHT22;9145;48.588;9.250;2022-10-16T13:24:49;25.80;99.90
18041;DHT22;9145;48.588;9.250;2022-10-16T13:27:24;25.40;99.90
18041;DHT22;9145;48.588;9.250;2022-10-16T13:29:54;25.30;99.90
18041;DHT22;9145;48.588;9.250;2022-10-16T13:32:26;25.20;99.90
18041;DHT22;9145;48.588;9.250;2022-10-16T13:34:53;25.00;99.90
18041;DHT22;9145;48.588;9.250;2022-10-16T13:37:24;25.00;99.90
18041;DHT22;9145;48.588;9.250;2022-10-16T13:39:51;25.00;99.90
18041;DHT22;9145;48.588;9.250;2022-10-16T13:42:23;25.20;99.90
18041;DHT22;9145;48.588;9.250;2022-10-16T13:44:52;25.30;99.90
18041;DHT22;9145;48.588;9.250;2022-10-16T13:47:21;25.60;99.90
18041;DHT22;9145;48.588;9.250;2022-10-16T13:49:59;25.70;99.90
18041;DHT22;9145;48.588;9.250;2022-10-16T13:52:28;25.80;99.90
18041;DHT22;9145;48.588;9.250;2022-10-16T13:54:55;25.90;99.90
18041;DHT22;9145;48.588;9.250;2022-10-16T13:57:23;25.90;99.90
18041;DHT22;9145;48.588;9.250;2022-10-16T13:59:51;25.80;99.90
18041;DHT22;9145;48.588;9.250;2022-10-16T14:02:22;25.80;99.90
18041;DHT22;9145;48.588;9.250;2022-10-16T14:04:52;25.60;99.90
18041;DHT22;9145;48.588;9.250;2022-10-16T14:07:23;25.40;99.90
18041;DHT22;9145;48.588;9.250;2022-10-16T14:09:53;25.30;99.90
18041;DHT22;9145;48.588;9.250;2022-10-16T14:12:24;25.20;99.90
18041;DHT22;9145;48.588;9.250;2022-10-16T14:14:52;25.20;99.90
18041;DHT22;9145;48.588;9.250;2022-10-16T14:17:22;25.10;99.90
18041;DHT22;9145;48.588;9.250;2022-10-16T14:19:51;25.10;99.90
18041;DHT22;9145;48.588;9.250;2022-10-16T14:22:27;25.00;99.90
18041;DHT22;9145;48.588;9.250;2022-10-16T14:24:56;25.00;99.90
18041;DHT22;9145;48.588;9.250;2022-10-16T14:27:29;25.00;99.90
18041;DHT22;9145;48.588;9.250;2022-10-16T14:30:14;25.00;99.90
18041;DHT22;9145;48.588;9.250;2022-10-16T14:32:52;24.90;99.90
18041;DHT22;9145;48.588;9.250;2022-10-16T14:35:27;24.90;99.90
18041;DHT22;9145;48.588;9.250;2022-10-16T14:37:55;24.80;99.90
18041;DHT22;9145;48.588;9.250;2022-10-16T14:40:26;24.80;99.90
18041;DHT22;9145;48.588;9.250;2022-10-16T14:42:54;24.80;99.90
18041;DHT22;9145;48.588;9.250;2022-10-16T14:45:23;24.80;99.90
18041;DHT22;9145;48.588;9.250;2022-10-16T14:47:52;24.80;99.90
18041;DHT22;9145;48.588;9.250;2022-10-16T14:50:20;24.80;99.90
18041;DHT22;9145;48.588;9.250;2022-10-16T14:52:47;24.80;99.90
18041;DHT22;9145;48.588;9.250;2022-10-16T14:55:14;24.90;99.90
18041;DHT22;9145;48.588;9.250;2022-10-16T14:57:43;25.10;99.90
18041;DHT22;9145;48.588;9.250;2022-10-16T15:00:16;25.10;99.90
18041;DHT22;9145;48.588;9.250;2022-10-16T15:02:44;25.10;99.90
18041;DHT22;9145;48.588;9.250;2022-10-16T15:05:14;25.10;99.90
18041;DHT22;9145;48.588;9.250;2022-10-16T15:07:41;25.30;99.90
18041;DHT22;9145;48.588;9.250;2022-10-16T15:10:09;25.50;99.90
18041;DHT22;9145;48.588;9.250;2022-10-16T15:12:36;25.60;99.90
18041;DHT22;9145;48.588;9.250;2022-10-16T15:15:19;25.70;99.90
18041;DHT22;9145;48.588;9.250;2022-10-16T15:17:48;25.60;99.90
18041;DHT22;9145;48.588;9.250;2022-10-16T15:20:17;25.60;99.90
18041;DHT22;9145;48.588;9.250;2022-10-16T15:22:44;25.50;99.90
18041;DHT22;9145;48.588;9.250;2022-10-16T15:25:24;25.30;99.90
18041;DHT22;9145;48.588;9.250;2022-10-16T15:27:52;25.20;99.90
18041;DHT22;9145;48.588;9.250;2022-10-16T15:30:20;25.10;99.90
18041;DHT22;9145;48.588;9.250;2022-10-16T15:32:47;25.10;99.90
18041;DHT22;9145;48.588;9.250;2022-10-16T15:35:14;25.40;99.90
18041;DHT22;9145;48.588;9.250;2022-10-16T15:37:41;25.90;99.90
18041;DHT22;9145;48.588;9.250;2022-10-16T15:40:09;26.60;99.90
18041;DHT22;9145;48.588;9.250;2022-10-16T15:42:36;27.00;99.90
18041;DHT22;9145;48.588;9.250;2022-10-16T15:45:03;26.90;99.90
18041;DHT22;9145;48.588;9.250;2022-10-16T15:47:33;26.70;99.90
18041;DHT22;9145;48.588;9.250;2022-10-16T15:49:59;26.60;99.90
18041;DHT22;9145;48.588;9.250;2022-10-16T15:52:26;26.70;99.90
18041;DHT22;9145;48.588;9.250;2022-10-16T15:54:54;26.90;99.90
18041;DHT22;9145;48.588;9.250;2022-10-16T15:57:21;27.00;99.90
18041;DHT22;9145;48.588;9.250;2022-10-16T15:59:48;27.00;99.90
18041;DHT22;9145;48.588;9.250;2022-10-16T16:02:15;26.70;99.90
18041;DHT22;9145;48.588;9.250;2022-10-16T16:04:43;26.20;99.90
18041;DHT22;9145;48.588;9.250;2022-10-16T16:07:09;25.70;99.90
18041;DHT22;9145;48.588;9.250;2022-10-16T16:09:36;25.40;99.90
18041;DHT22;9145;48.588;9.250;2022-10-16T16:12:03;25.10;99.90
18041;DHT22;9145;48.588;9.250;2022-10-16T16:14:30;24.80;99.90
18041;DHT22;9145;48.588;9.250;2022-10-16T16:16:57;24.80;99.90
18041;DHT22;9145;48.588;9.250;2022-10-16T16:19:24;24.80;99.90